Ferryville, Wisconsin
Current Conditions -  °F | °C
As of 2:35 AM on Sunday 26 Oct 2014 (Local Time) from KY51 Reporting Station
Clear Clear  
Wind Chill: 42°   Ceiling: Unl
Heat Index: 42°   Visibility: 10mi
Dew Point: 28°   Wind: 0mph
Humidity: 58%   Direction: NA
Pressure: 30.03"   Gusts: NA
Location:  43.35°N, 91.1°W
Report Text: KY51 260735Z AUTO 00000KT 10SM CLR 05/M02 A3003 RMK AO1 T00541022
Loading
Personal Weather Stations






























Interactive Weather Map
Tropical Storm Tracking
New forecast layout! Learn more

10-Day Weather Forecast

Advertisements
Track Severe Weather on mobile